Time,TemperatureF,DewpointF,PressureIn,WindDirection,WindDirectionDegrees,WindSpeedMPH,WindSpeedGustMPH,Humidity,HourlyPrecipIn,Conditions,Clouds,dailyrainin,SolarRadiationWatts/m^2,SoftwareType,DateUTC
2013-08-03 00:01:00,81.3,77.7,29.94,SE,133,11.5,11.5,89,0.00,CLR,SKC,0.00,0.0,WeatherDisplay:10.37,2013-08-03 05:01:00,
2013-08-03 00:06:00,81.3,77.7,29.94,ESE,108,11.5,11.5,89,0.00,CLR,SKC,0.00,0.0,WeatherDisplay:10.37,2013-08-03 05:06:00,
2013-08-03 00:11:00,81.2,77.6,29.94,ESE,108,12.0,12.0,89,0.00,CLR,SKC,0.00,0.0,WeatherDisplay:10.37,2013-08-03 05:11:00,
2013-08-03 00:16:00,81.2,77.3,29.94,ESE,113,6.9,6.9,88,0.00,CLR,SKC,0.00,0.0,WeatherDisplay:10.37,2013-08-03 05:16:00,
2013-08-03 00:21:00,81.2,77.3,29.94,SE,131,12.7,12.7,88,0.00,CLR,SKC,0.00,0.0,WeatherDisplay:10.37,2013-08-03 05:21:00,
2013-08-03 00:26:00,81.2,77.3,29.94,ESE,123,11.5,11.5,88,0.00,CLR,SKC,0.00,0.0,WeatherDisplay:10.37,2013-08-03 05:26:00,
2013-08-03 00:31:00,81.2,77.3,29.94,ESE,105,9.2,9.2,88,0.00,CLR,SKC,0.00,0.0,WeatherDisplay:10.37,2013-08-03 05:31:00,
2013-08-03 00:36:00,81.2,77.3,29.94,SE,145,11.5,11.5,88,0.00,CLR,SKC,0.00,0.0,WeatherDisplay:10.37,2013-08-03 05:36:00,
2013-08-03 00:41:00,81.2,77.3,29.94,SE,142,6.9,6.9,88,0.00,CLR,SKC,0.00,0.0,WeatherDisplay:10.37,2013-08-03 05:41:00,
2013-08-03 00:46:00,81.1,77.2,29.94,SSE,167,6.9,6.9,88,0.00,CLR,SKC,0.00,0.0,WeatherDisplay:10.37,2013-08-03 05:46:00,
2013-08-03 00:51:00,81.1,77.2,29.94,SE,125,6.9,6.9,88,0.00,CLR,SKC,0.00,0.0,WeatherDisplay:10.37,2013-08-03 05:51:00,
2013-08-03 00:56:00,81.0,77.1,29.94,ESE,108,11.5,11.5,88,0.00,CLR,SKC,0.00,0.0,WeatherDisplay:10.37,2013-08-03 05:56:00,
2013-08-03 01:01:00,80.9,77.0,29.94,ESE,121,5.8,5.8,88,0.00,CLR,SKC,0.00,0.0,WeatherDisplay:10.37,2013-08-03 06:01:00,
2013-08-03 01:06:00,80.9,77.0,29.94,SE,128,10.4,10.4,88,0.00,CLR,SKC,0.00,0.0,WeatherDisplay:10.37,2013-08-03 06:06:00,
2013-08-03 01:11:00,80.8,76.9,29.94,ESE,118,11.5,11.5,88,0.00,CLR,SKC,0.00,0.0,WeatherDisplay:10.37,2013-08-03 06:11:00,
2013-08-03 01:16:00,80.7,76.8,29.94,SE,126,9.2,9.2,88,0.00,CLR,SKC,0.00,0.0,WeatherDisplay:10.37,2013-08-03 06:16:00,
2013-08-03 01:21:00,80.7,76.8,29.94,ESE,112,6.9,6.9,88,0.00,CLR,SKC,0.00,0.0,WeatherDisplay:10.37,2013-08-03 06:21:00,
2013-08-03 01:26:00,80.7,76.8,29.94,ESE,121,6.9,6.9,88,0.00,CLR,SKC,0.00,0.0,WeatherDisplay:10.37,2013-08-03 06:26:00,
2013-08-03 01:31:00,80.7,76.5,29.94,ESE,112,9.2,9.2,87,0.00,CLR,SKC,0.00,0.0,WeatherDisplay:10.37,2013-08-03 06:31:00,
2013-08-03 01:36:00,80.6,76.4,29.94,SE,130,5.8,5.8,87,0.00,CLR,SKC,0.00,0.0,WeatherDisplay:10.37,2013-08-03 06:36:00,
2013-08-03 01:41:00,80.6,76.4,29.94,ESE,114,5.8,5.8,87,0.00,CLR,SKC,0.00,0.0,WeatherDisplay:10.37,2013-08-03 06:41:00,
2013-08-03 01:46:00,80.5,75.9,29.94,SSE,148,4.6,4.6,86,0.00,CLR,SKC,0.00,0.0,WeatherDisplay:10.37,2013-08-03 06:46:00,
2013-08-03 01:51:00,80.5,75.9,29.94,SE,144,5.8,5.8,86,0.00,CLR,SKC,0.00,0.0,WeatherDisplay:10.37,2013-08-03 06:51:00,
2013-08-03 01:56:00,80.5,75.9,29.94,SE,140,8.1,8.1,86,0.00,CLR,SKC,0.00,0.0,WeatherDisplay:10.37,2013-08-03 06:56:00,
2013-08-03 02:01:00,80.5,75.9,29.94,SE,124,5.8,5.8,86,0.00,CLR,SKC,0.00,0.0,WeatherDisplay:10.37,2013-08-03 07:01:00,
2013-08-03 02:06:00,80.6,76.0,29.94,SE,133,6.0,6.0,86,0.00,CLR,SKC,0.00,0.0,WeatherDisplay:10.37,2013-08-03 07:06:00,
2013-08-03 02:11:00,80.6,75.7,29.94,South,175,5.8,5.8,85,0.00,CLR,SKC,0.00,0.0,WeatherDisplay:10.37,2013-08-03 07:11:00,
2013-08-03 02:16:00,80.6,75.7,29.94,SE,125,6.0,6.0,85,0.00,CLR,SKC,0.00,0.0,WeatherDisplay:10.37,2013-08-03 07:16:00,
2013-08-03 02:21:00,80.6,76.0,29.94,SE,130,6.9,6.9,86,0.00,CLR,SKC,0.00,0.0,WeatherDisplay:10.37,2013-08-03 07:21:00,
2013-08-03 02:26:00,80.6,76.0,29.94,ESE,121,3.5,3.5,86,0.00,CLR,SKC,0.00,0.0,WeatherDisplay:10.37,2013-08-03 07:26:00,
2013-08-03 02:31:00,80.5,75.9,29.94,SSE,147,6.9,6.9,86,0.00,CLR,SKC,0.00,0.0,WeatherDisplay:10.37,2013-08-03 07:31:00,
2013-08-03 02:36:00,80.6,76.0,29.94,SE,127,4.6,4.6,86,0.00,CLR,SKC,0.00,0.0,WeatherDisplay:10.37,2013-08-03 07:36:00,
2013-08-03 02:41:00,80.6,76.0,29.93,SSE,148,4.6,4.6,86,0.00,CLR,SKC,0.00,0.0,WeatherDisplay:10.37,2013-08-03 07:41:00,
2013-08-03 02:46:00,80.5,75.9,29.93,SSE,153,4.6,4.6,86,0.00,CLR,SKC,0.00,0.0,WeatherDisplay:10.37,2013-08-03 07:46:00,
2013-08-03 02:51:00,80.5,76.3,29.93,SE,128,4.6,4.6,87,0.00,CLR,SKC,0.00,0.0,WeatherDisplay:10.37,2013-08-03 07:51:00,
2013-08-03 02:56:00,80.5,76.3,29.93,SSE,148,3.5,3.5,87,0.00,CLR,SKC,0.00,0.0,WeatherDisplay:10.37,2013-08-03 07:56:00,
2013-08-03 03:01:00,80.5,76.3,29.93,SSE,153,6.9,6.9,87,0.00,CLR,SKC,0.00,0.0,WeatherDisplay:10.37,2013-08-03 08:01:00,
2013-08-03 03:06:00,80.5,76.6,29.93,SE,134,4.6,4.6,88,0.00,CLR,SKC,0.00,0.0,WeatherDisplay:10.37,2013-08-03 08:06:00,
2013-08-03 03:11:00,80.6,76.7,29.93,SSE,150,4.6,4.6,88,0.00,CLR,SKC,0.00,0.0,WeatherDisplay:10.37,2013-08-03 08:11:00,
2013-08-03 03:16:00,80.5,76.6,29.93,SE,141,3.5,3.5,88,0.00,CLR,SKC,0.00,0.0,WeatherDisplay:10.37,2013-08-03 08:16:00,
2013-08-03 03:21:00,80.5,76.6,29.93,SE,146,3.5,3.5,88,0.00,CLR,SKC,0.00,0.0,WeatherDisplay:10.37,2013-08-03 08:21:00,
2013-08-03 03:26:00,80.5,77.0,29.93,SE,146,3.5,3.5,89,0.00,CLR,SKC,0.00,0.0,WeatherDisplay:10.37,2013-08-03 08:26:00,
2013-08-03 03:31:00,80.5,77.0,29.93,SSE,157,4.6,4.6,89,0.00,CLR,SKC,0.00,0.0,WeatherDisplay:10.37,2013-08-03 08:31:00,
2013-08-03 03:36:00,80.5,77.0,29.93,SSE,147,3.5,3.5,89,0.00,CLR,SKC,0.00,0.0,WeatherDisplay:10.37,2013-08-03 08:36:00,
2013-08-03 03:41:00,80.5,77.0,29.93,SSE,159,3.5,3.5,89,0.00,CLR,SKC,0.00,0.0,WeatherDisplay:10.37,2013-08-03 08:41:00,
2013-08-03 03:46:00,80.5,77.3,29.93,SSE,163,2.3,2.3,90,0.00,CLR,SKC,0.00,0.0,WeatherDisplay:10.37,2013-08-03 08:46:00,
2013-08-03 03:51:00,80.5,77.3,29.93,SSE,155,3.5,3.5,90,0.00,CLR,SKC,0.00,0.0,WeatherDisplay:10.37,2013-08-03 08:51:00,
2013-08-03 03:56:00,80.5,77.3,29.92,South,179,1.1,1.1,90,0.00,CLR,SKC,0.00,0.0,WeatherDisplay:10.37,2013-08-03 08:56:00,
2013-08-03 04:01:00,80.5,77.3,29.92,South,169,1.1,1.1,90,0.00,CLR,SKC,0.00,0.0,WeatherDisplay:10.37,2013-08-03 09:01:00,
2013-08-03 04:06:00,80.5,77.3,29.92,SSW,194,2.3,2.3,90,0.00,CLR,SKC,0.00,0.0,WeatherDisplay:10.37,2013-08-03 09:06:00,
2013-08-03 04:11:00,80.5,77.3,29.92,SSE,149,3.5,3.5,90,0.00,CLR,SKC,0.00,0.0,WeatherDisplay:10.37,2013-08-03 09:11:00,
2013-08-03 04:16:00,80.5,77.3,29.92,South,188,1.0,1.0,90,0.00,CLR,SKC,0.00,0.0,WeatherDisplay:10.37,2013-08-03 09:16:00,
2013-08-03 04:21:00,80.5,77.6,29.92,South,191,1.1,1.1,91,0.00,CLR,SKC,0.00,0.0,WeatherDisplay:10.37,2013-08-03 09:21:00,
2013-08-03 04:26:00,80.5,77.6,29.92,SSE,152,1.1,1.1,91,0.00,CLR,SKC,0.00,0.0,WeatherDisplay:10.37,2013-08-03 09:26:00,
2013-08-03 04:31:00,80.4,77.5,29.92,South,190,1.1,1.1,91,0.00,CLR,SKC,0.00,0.0,WeatherDisplay:10.37,2013-08-03 09:31:00,
2013-08-03 04:36:00,80.4,77.5,29.92,South,190,1.1,0.0,91,0.00,CLR,SKC,0.00,0.0,WeatherDisplay:10.37,2013-08-03 09:36:00,
2013-08-03 04:41:00,80.4,77.5,29.92,SSE,167,2.3,2.3,91,0.00,CLR,SKC,0.00,0.0,WeatherDisplay:10.37,2013-08-03 09:41:00,
2013-08-03 04:46:00,80.4,77.5,29.92,South,186,1.1,1.1,91,0.00,CLR,SKC,0.00,0.0,WeatherDisplay:10.37,2013-08-03 09:46:00,
2013-08-03 04:51:00,80.3,77.4,29.92,South,189,1.1,1.1,91,0.00,CLR,SKC,0.00,0.0,WeatherDisplay:10.37,2013-08-03 09:51:00,
2013-08-03 04:56:00,80.3,77.4,29.92,SW,223,1.1,1.1,91,0.00,CLR,SKC,0.00,0.0,WeatherDisplay:10.37,2013-08-03 09:56:00,
2013-08-03 05:01:00,80.3,77.4,29.92,SSE,149,0.0,0.0,91,0.00,CLR,SKC,0.00,0.0,WeatherDisplay:10.37,2013-08-03 10:01:00,
2013-08-03 05:06:00,80.3,77.8,29.92,SSW,213,2.3,2.3,92,0.00,CLR,SKC,0.00,0.0,WeatherDisplay:10.37,2013-08-03 10:06:00,
2013-08-03 05:11:00,80.3,77.8,29.92,SW,221,1.1,1.1,92,0.00,CLR,SKC,0.00,0.0,WeatherDisplay:10.37,2013-08-03 10:11:00,
2013-08-03 05:16:00,80.3,77.8,29.92,SSW,207,1.1,0.0,92,0.00,CLR,SKC,0.00,0.0,WeatherDisplay:10.37,2013-08-03 10:16:00,
2013-08-03 05:21:00,80.2,77.7,29.92,SSW,207,1.1,1.1,92,0.00,CLR,SKC,0.00,0.0,WeatherDisplay:10.37,2013-08-03 10:21:00,
2013-08-03 05:26:00,80.2,77.7,29.92,South,186,1.1,1.1,92,0.00,CLR,SKC,0.00,0.0,WeatherDisplay:10.37,2013-08-03 10:26:00,
2013-08-03 05:31:00,80.1,77.6,29.92,South,186,1.1,1.1,92,0.00,CLR,SKC,0.00,0.0,WeatherDisplay:10.37,2013-08-03 10:31:00,
2013-08-03 05:36:00,80.0,77.5,29.92,South,186,1.0,0.0,92,0.00,CLR,SKC,0.00,0.0,WeatherDisplay:10.37,2013-08-03 10:36:00,
2013-08-03 05:41:00,80.0,77.5,29.92,SSE,166,2.0,2.0,92,0.00,CLR,SKC,0.00,0.0,WeatherDisplay:10.37,2013-08-03 10:41:00,
2013-08-03 05:46:00,80.0,77.5,29.92,South,178,0.0,0.0,92,0.00,CLR,SKC,0.00,0.0,WeatherDisplay:10.37,2013-08-03 10:46:00,
2013-08-03 05:51:00,79.9,77.4,29.92,South,181,2.3,2.3,92,0.00,CLR,SKC,0.00,0.0,WeatherDisplay:10.37,2013-08-03 10:51:00,
2013-08-03 05:56:00,79.9,77.4,29.93,South,181,1.1,1.1,92,0.00,CLR,SKC,0.00,0.0,WeatherDisplay:10.37,2013-08-03 10:56:00,
2013-08-03 06:01:00,80.0,77.8,29.93,South,181,0.0,0.0,93,0.00,CLR,SKC,0.00,0.0,WeatherDisplay:10.37,2013-08-03 11:01:00,
2013-08-03 06:06:00,80.0,77.8,29.93,South,180,0.0,0.0,93,0.00,CLR,SKC,0.00,0.0,WeatherDisplay:10.37,2013-08-03 11:06:00,
2013-08-03 06:11:00,79.9,77.7,29.93,South,179,1.1,1.1,93,0.00,CLR,SKC,0.00,0.0,WeatherDisplay:10.37,2013-08-03 11:11:00,
2013-08-03 06:16:00,79.9,77.7,29.93,South,179,1.1,0.0,93,0.00,CLR,SKC,0.00,0.0,WeatherDisplay:10.37,2013-08-03 11:16:00,
2013-08-03 06:21:00,80.0,77.8,29.93,South,190,2.3,2.3,93,0.00,CLR,SKC,0.00,0.0,WeatherDisplay:10.37,2013-08-03 11:21:00,
2013-08-03 06:26:00,80.0,77.8,29.93,South,190,1.1,1.1,93,0.00,CLR,SKC,0.00,0.0,WeatherDisplay:10.37,2013-08-03 11:26:00,
2013-08-03 06:31:00,80.0,77.8,29.93,South,186,3.5,0.0,93,0.00,CLR,SKC,0.00,0.0,WeatherDisplay:10.37,2013-08-03 11:31:00,
2013-08-03 06:36:00,79.9,77.7,29.93,SSE,165,2.3,2.3,93,0.00,CLR,SKC,0.00,0.0,WeatherDisplay:10.37,2013-08-03 11:36:00,
2013-08-03 06:41:00,79.8,77.6,29.93,SSE,165,2.3,2.3,93,0.00,CLR,SKC,0.00,0.0,WeatherDisplay:10.37,2013-08-03 11:41:00,
2013-08-03 06:46:00,79.8,77.6,29.93,SSE,165,1.1,1.1,93,0.00,CLR,SKC,0.00,0.0,WeatherDisplay:10.37,2013-08-03 11:46:00,
2013-08-03 06:51:00,79.8,77.6,29.93,SSE,165,1.1,1.1,93,0.00,CLR,SKC,0.00,5.0,WeatherDisplay:10.37,2013-08-03 11:51:00,
2013-08-03 06:56:00,79.9,77.7,29.94,SSE,165,2.3,2.3,93,0.00,CLR,SKC,0.00,7.0,WeatherDisplay:10.37,2013-08-03 11:56:00,
2013-08-03 07:01:00,79.9,77.7,29.94,SSE,163,2.0,2.0,93,0.00,CLR,SKC,0.00,12.0,WeatherDisplay:10.37,2013-08-03 12:01:00,
2013-08-03 07:06:00,80.0,77.8,29.94,SSE,163,1.1,1.1,93,0.00,CLR,SKC,0.00,18.0,WeatherDisplay:10.37,2013-08-03 12:06:00,
2013-08-03 07:11:00,80.1,77.9,29.94,SSE,163,1.1,1.1,93,0.00,CLR,SKC,0.00,40.0,WeatherDisplay:10.37,2013-08-03 12:11:00,
2013-08-03 07:16:00,80.2,78.0,29.94,SSE,163,1.1,1.1,93,0.00,CLR,SKC,0.00,54.0,WeatherDisplay:10.37,2013-08-03 12:16:00,
2013-08-03 07:21:00,80.4,78.2,29.94,SSE,159,3.5,3.5,93,0.00,CLR,SKC,0.00,70.0,WeatherDisplay:10.37,2013-08-03 12:21:00,
2013-08-03 07:26:00,80.5,78.3,29.94,SSE,158,2.3,2.3,93,0.00,CLR,SKC,0.00,104.0,WeatherDisplay:10.37,2013-08-03 12:26:00,
2013-08-03 07:31:00,80.8,78.6,29.94,SSE,151,3.5,3.5,93,0.00,CLR,SKC,0.00,105.0,WeatherDisplay:10.37,2013-08-03 12:31:00,
2013-08-03 07:36:00,81.0,78.8,29.94,SSE,161,3.5,3.5,93,0.00,CLR,SKC,0.00,114.0,WeatherDisplay:10.37,2013-08-03 12:36:00,
2013-08-03 07:41:00,81.3,79.1,29.94,SSE,161,3.5,3.5,93,0.00,CLR,SKC,0.00,120.0,WeatherDisplay:10.37,2013-08-03 12:41:00,
2013-08-03 07:46:00,81.4,78.9,29.94,SSE,153,3.5,3.5,92,0.00,CLR,SKC,0.00,111.0,WeatherDisplay:10.37,2013-08-03 12:46:00,
2013-08-03 07:51:00,81.7,79.1,29.94,SE,130,3.5,3.5,92,0.00,CLR,SKC,0.00,91.0,WeatherDisplay:10.37,2013-08-03 12:51:00,
2013-08-03 07:56:00,81.9,79.3,29.95,SE,134,3.5,3.5,92,0.00,CLR,SKC,0.00,70.0,WeatherDisplay:10.37,2013-08-03 12:56:00,
2013-08-03 08:01:00,82.1,79.2,29.95,SSE,150,4.6,4.6,91,0.00,CLR,SKC,0.00,56.0,WeatherDisplay:10.37,2013-08-03 13:01:00,
2013-08-03 08:06:00,82.3,79.4,29.95,SE,146,3.5,3.5,91,0.00,CLR,SKC,0.00,54.0,WeatherDisplay:10.37,2013-08-03 13:06:00,
2013-08-03 08:11:00,82.6,79.7,29.95,SSE,148,2.3,2.3,91,0.00,CLR,SKC,0.00,56.0,WeatherDisplay:10.37,2013-08-03 13:11:00,
2013-08-03 08:16:00,82.8,79.6,29.95,South,169,4.6,4.6,90,0.00,CLR,SKC,0.00,69.0,WeatherDisplay:10.37,2013-08-03 13:16:00,
2013-08-03 08:21:00,83.2,80.0,29.95,South,182,4.0,4.0,90,0.00,CLR,SKC,0.00,114.0,WeatherDisplay:10.37,2013-08-03 13:21:00,
2013-08-03 08:26:00,83.5,79.9,29.96,SSE,148,4.0,4.0,89,0.00,CLR,SKC,0.00,183.0,WeatherDisplay:10.37,2013-08-03 13:26:00,
2013-08-03 08:31:00,83.6,79.7,29.96,SE,127,4.0,4.0,88,0.00,CLR,SKC,0.00,253.0,WeatherDisplay:10.37,2013-08-03 13:31:00,
2013-08-03 08:36:00,83.8,79.5,29.96,SE,138,3.5,3.5,87,0.00,CLR,SKC,0.00,304.0,WeatherDisplay:10.37,2013-08-03 13:36:00,
2013-08-03 08:41:00,84.1,79.8,29.96,SSE,149,4.0,4.0,87,0.00,CLR,SKC,0.00,329.0,WeatherDisplay:10.37,2013-08-03 13:41:00,
2013-08-03 08:46:00,84.3,79.7,29.96,South,188,4.6,4.6,86,0.00,CLR,SKC,0.00,345.0,WeatherDisplay:10.37,2013-08-03 13:46:00,
2013-08-03 08:51:00,84.4,79.4,29.96,SSE,153,4.6,4.6,85,0.00,CLR,SKC,0.00,362.0,WeatherDisplay:10.37,2013-08-03 13:51:00,
2013-08-03 08:56:00,84.7,79.7,29.96,South,172,5.0,5.0,85,0.00,CLR,SKC,0.00,378.0,WeatherDisplay:10.37,2013-08-03 13:56:00,
2013-08-03 09:01:00,85.0,79.6,29.96,SSE,151,3.5,3.5,84,0.00,CLR,SKC,0.00,397.0,WeatherDisplay:10.37,2013-08-03 14:01:00,
2013-08-03 09:06:00,85.2,79.4,29.96,SE,126,3.5,3.5,83,0.00,CLR,SKC,0.00,413.0,WeatherDisplay:10.37,2013-08-03 14:06:00,
2013-08-03 09:11:00,85.4,79.6,29.96,ESE,119,3.5,3.5,83,0.00,CLR,SKC,0.00,431.0,WeatherDisplay:10.37,2013-08-03 14:11:00,
2013-08-03 09:16:00,85.5,79.4,29.96,ESE,119,3.5,3.5,82,0.00,CLR,SKC,0.00,445.0,WeatherDisplay:10.37,2013-08-03 14:16:00,
2013-08-03 09:21:00,85.5,79.0,29.96,South,184,7.0,7.0,81,0.00,CLR,SKC,0.00,464.0,WeatherDisplay:10.37,2013-08-03 14:21:00,
2013-08-03 09:27:00,85.6,79.1,29.96,ESE,109,3.5,3.8,81,0.00,CLR,SKC,0.00,483.0,WeatherDisplay:10.37,2013-08-03 14:27:00,
2013-08-03 09:32:00,85.6,79.1,29.96,SSE,156,4.6,4.6,81,0.00,CLR,SKC,0.00,497.0,WeatherDisplay:10.37,2013-08-03 14:32:00,
2013-08-03 09:37:00,85.6,79.1,29.96,SE,126,6.9,6.9,81,0.00,CLR,SKC,0.00,515.0,WeatherDisplay:10.37,2013-08-03 14:37:00,
2013-08-03 09:42:00,85.7,79.2,29.96,SSE,155,4.0,4.0,81,0.00,CLR,SKC,0.00,531.0,WeatherDisplay:10.37,2013-08-03 14:42:00,
2013-08-03 09:47:00,85.9,79.0,29.96,ESE,119,6.9,6.9,80,0.00,CLR,SKC,0.00,545.0,WeatherDisplay:10.37,2013-08-03 14:47:00,
2013-08-03 09:52:00,85.9,79.0,29.96,SSE,148,4.6,4.6,80,0.00,CLR,SKC,0.00,561.0,WeatherDisplay:10.37,2013-08-03 14:52:00,
2013-08-03 09:57:00,85.9,78.6,29.96,ESE,119,10.4,10.4,79,0.00,CLR,SKC,0.00,578.0,WeatherDisplay:10.37,2013-08-03 14:57:00,
2013-08-03 10:02:00,85.9,79.4,29.96,SSE,162,4.0,4.0,81,0.00,CLR,SKC,0.00,594.0,WeatherDisplay:10.37,2013-08-03 15:02:00,
2013-08-03 10:07:00,86.1,79.2,29.96,SSE,148,5.0,5.0,80,0.00,CLR,SKC,0.00,610.0,WeatherDisplay:10.37,2013-08-03 15:07:00,
2013-08-03 10:12:00,86.4,79.1,29.96,South,173,9.2,9.2,79,0.00,CLR,SKC,0.00,622.0,WeatherDisplay:10.37,2013-08-03 15:12:00,
2013-08-03 10:17:00,86.5,78.8,29.96,SE,127,10.4,10.4,78,0.00,CLR,SKC,0.00,636.0,WeatherDisplay:10.37,2013-08-03 15:17:00,
2013-08-03 10:22:00,86.5,78.8,29.96,ESE,123,6.9,6.9,78,0.00,CLR,SKC,0.00,650.0,WeatherDisplay:10.37,2013-08-03 15:22:00,
2013-08-03 10:27:00,86.4,79.1,29.97,ESE,112,5.8,5.8,79,0.00,CLR,SKC,0.00,666.0,WeatherDisplay:10.37,2013-08-03 15:27:00,
2013-08-03 10:32:00,86.4,78.7,29.97,SE,141,9.2,9.2,78,0.00,CLR,SKC,0.00,677.0,WeatherDisplay:10.37,2013-08-03 15:32:00,
2013-08-03 10:37:00,86.5,78.8,29.97,ESE,122,6.9,6.9,78,0.00,CLR,SKC,0.00,684.0,WeatherDisplay:10.37,2013-08-03 15:37:00,
2013-08-03 10:42:00,86.8,79.1,29.97,South,184,9.2,9.2,78,0.00,CLR,SKC,0.00,698.0,WeatherDisplay:10.37,2013-08-03 15:42:00,
2013-08-03 10:47:00,86.9,78.8,29.97,SE,136,5.0,5.0,77,0.00,CLR,SKC,0.00,712.0,WeatherDisplay:10.37,2013-08-03 15:47:00,
2013-08-03 10:52:00,86.9,79.2,29.97,SE,128,7.0,7.0,78,0.00,CLR,SKC,0.00,715.0,WeatherDisplay:10.37,2013-08-03 15:52:00,
2013-08-03 10:57:00,87.0,78.9,29.97,ESE,120,7.0,7.0,77,0.00,CLR,SKC,0.00,731.0,WeatherDisplay:10.37,2013-08-03 15:57:00,
2013-08-03 11:02:00,87.1,79.0,29.97,SE,140,9.2,9.2,77,0.00,CLR,SKC,0.00,740.0,WeatherDisplay:10.37,2013-08-03 16:02:00,
2013-08-03 11:07:00,87.3,79.2,29.97,ESE,110,7.0,7.0,77,0.00,CLR,SKC,0.00,754.0,WeatherDisplay:10.37,2013-08-03 16:07:00,
2013-08-03 11:12:00,87.4,79.3,29.97,SSE,157,4.6,4.6,77,0.00,CLR,SKC,0.00,768.0,WeatherDisplay:10.37,2013-08-03 16:12:00,
2013-08-03 11:17:00,87.4,78.9,29.97,SE,126,5.8,5.8,76,0.00,CLR,SKC,0.00,773.0,WeatherDisplay:10.37,2013-08-03 16:17:00,
2013-08-03 11:22:00,87.2,79.1,29.97,SE,128,9.2,9.2,77,0.00,CLR,SKC,0.00,798.0,WeatherDisplay:10.37,2013-08-03 16:22:00,
2013-08-03 11:27:00,87.2,78.7,29.97,ESE,108,10.4,10.4,76,0.00,CLR,SKC,0.00,809.0,WeatherDisplay:10.37,2013-08-03 16:27:00,
2013-08-03 11:32:00,87.1,79.0,29.97,East,93,6.0,6.0,77,0.00,CLR,SKC,0.00,816.0,WeatherDisplay:10.37,2013-08-03 16:32:00,
2013-08-03 11:37:00,87.2,78.7,29.97,SSE,148,9.0,9.0,76,0.00,CLR,SKC,0.00,826.0,WeatherDisplay:10.37,2013-08-03 16:37:00,
2013-08-03 11:42:00,87.4,79.3,29.98,ESE,117,6.0,6.0,77,0.00,CLR,SKC,0.00,833.0,WeatherDisplay:10.37,2013-08-03 16:42:00,
2013-08-03 11:47:00,87.3,79.2,29.98,SSE,150,11.5,11.5,77,0.00,CLR,SKC,0.00,842.0,WeatherDisplay:10.37,2013-08-03 16:47:00,
2013-08-03 11:52:00,87.4,78.9,29.98,South,174,11.5,11.5,76,0.00,CLR,SKC,0.00,849.0,WeatherDisplay:10.37,2013-08-03 16:52:00,
2013-08-03 11:58:00,87.4,78.9,29.98,SSE,149,6.9,6.9,76,0.00,CLR,SKC,0.00,858.0,WeatherDisplay:10.37,2013-08-03 16:58:00,
2013-08-03 12:03:00,87.5,79.0,29.98,SE,141,11.5,11.5,76,0.00,CLR,SKC,0.00,867.0,WeatherDisplay:10.37,2013-08-03 17:03:00,
2013-08-03 12:08:00,87.3,78.4,29.98,SE,127,10.4,10.4,75,0.00,CLR,SKC,0.00,874.0,WeatherDisplay:10.37,2013-08-03 17:08:00,
2013-08-03 12:13:00,87.1,79.0,29.98,SE,135,9.0,9.0,77,0.00,CLR,SKC,0.00,877.0,WeatherDisplay:10.37,2013-08-03 17:13:00,
2013-08-03 12:18:00,87.4,79.3,29.98,ESE,121,9.2,9.2,77,0.00,CLR,SKC,0.00,881.0,WeatherDisplay:10.37,2013-08-03 17:18:00,
2013-08-03 12:23:00,86.9,78.8,29.98,SSE,149,9.2,9.2,77,0.00,CLR,SKC,0.00,879.0,WeatherDisplay:10.37,2013-08-03 17:23:00,
2013-08-03 12:28:00,86.6,78.9,29.97,SE,129,10.4,10.4,78,0.00,CLR,SKC,0.00,861.0,WeatherDisplay:10.37,2013-08-03 17:28:00,
2013-08-03 12:33:00,87.0,79.3,29.97,SE,130,6.9,6.9,78,0.00,CLR,SKC,0.00,861.0,WeatherDisplay:10.37,2013-08-03 17:33:00,
2013-08-03 12:38:00,87.0,78.9,29.97,ESE,108,11.5,11.5,77,0.00,CLR,SKC,0.00,870.0,WeatherDisplay:10.37,2013-08-03 17:38:00,
2013-08-03 12:43:00,86.6,78.9,29.97,ESE,118,11.5,11.5,78,0.00,CLR,SKC,0.00,875.0,WeatherDisplay:10.37,2013-08-03 17:43:00,
2013-08-03 12:48:00,86.5,79.2,29.97,ESE,107,10.4,10.4,79,0.00,CLR,SKC,0.00,872.0,WeatherDisplay:10.37,2013-08-03 17:48:00,
2013-08-03 12:53:00,86.4,79.1,29.97,ESE,123,11.5,11.5,79,0.00,CLR,SKC,0.00,895.0,WeatherDisplay:10.37,2013-08-03 17:53:00,
2013-08-03 12:58:00,86.0,79.1,29.97,ESE,113,11.5,11.5,80,0.00,CLR,SKC,0.00,902.0,WeatherDisplay:10.37,2013-08-03 17:58:00,
2013-08-03 13:03:00,85.9,79.0,29.97,SE,126,10.4,10.4,80,0.00,CLR,SKC,0.00,918.0,WeatherDisplay:10.37,2013-08-03 18:03:00,
2013-08-03 13:08:00,86.0,79.5,29.97,ESE,121,12.7,12.7,81,0.00,CLR,SKC,0.00,918.0,WeatherDisplay:10.37,2013-08-03 18:08:00,
2013-08-03 13:13:00,85.8,79.3,29.97,ESE,123,11.5,11.5,81,0.00,CLR,SKC,0.00,918.0,WeatherDisplay:10.37,2013-08-03 18:13:00,
2013-08-03 13:18:00,86.0,79.1,29.97,ESE,111,12.7,12.7,80,0.00,CLR,SKC,0.00,918.0,WeatherDisplay:10.37,2013-08-03 18:18:00,
2013-08-03 13:23:00,86.1,79.2,29.97,ESE,112,12.7,12.7,80,0.00,CLR,SKC,0.00,919.0,WeatherDisplay:10.37,2013-08-03 18:23:00,
2013-08-03 13:28:00,85.8,79.3,29.97,SE,126,9.2,9.2,81,0.00,CLR,SKC,0.00,919.0,WeatherDisplay:10.37,2013-08-03 18:28:00,
2013-08-03 13:33:00,85.7,79.2,29.97,East,97,11.5,11.5,81,0.00,CLR,SKC,0.00,919.0,WeatherDisplay:10.37,2013-08-03 18:33:00,
2013-08-03 13:38:00,85.8,79.3,29.97,ESE,118,11.5,11.5,81,0.00,CLR,SKC,0.00,918.0,WeatherDisplay:10.37,2013-08-03 18:38:00,
2013-08-03 13:43:00,85.9,79.4,29.97,SE,132,11.5,11.5,81,0.00,CLR,SKC,0.00,918.0,WeatherDisplay:10.37,2013-08-03 18:43:00,
2013-08-03 13:48:00,85.5,79.4,29.97,SE,126,11.5,11.5,82,0.00,CLR,SKC,0.00,912.0,WeatherDisplay:10.37,2013-08-03 18:48:00,
2013-08-03 13:53:00,85.6,79.5,29.97,SSE,162,11.5,11.5,82,0.00,CLR,SKC,0.00,914.0,WeatherDisplay:10.37,2013-08-03 18:53:00,
2013-08-03 13:58:00,85.9,79.4,29.97,East,95,10.4,10.4,81,0.00,CLR,SKC,0.00,912.0,WeatherDisplay:10.37,2013-08-03 18:58:00,
2013-08-03 14:03:00,85.8,79.3,29.97,ESE,115,11.5,11.5,81,0.00,CLR,SKC,0.00,909.0,WeatherDisplay:10.37,2013-08-03 19:03:00,
2013-08-03 14:08:00,85.6,79.5,29.97,East,99,11.5,11.5,82,0.00,CLR,SKC,0.00,907.0,WeatherDisplay:10.37,2013-08-03 19:08:00,
2013-08-03 14:13:00,85.7,79.6,29.97,SE,139,12.7,12.7,82,0.00,CLR,SKC,0.00,902.0,WeatherDisplay:10.37,2013-08-03 19:13:00,
2013-08-03 14:18:00,86.0,79.9,29.97,SE,130,12.7,12.7,82,0.00,CLR,SKC,0.00,900.0,WeatherDisplay:10.37,2013-08-03 19:18:00,
2013-08-03 14:23:00,86.1,80.0,29.97,ESE,119,11.5,11.5,82,0.00,CLR,SKC,0.00,893.0,WeatherDisplay:10.37,2013-08-03 19:23:00,
2013-08-03 14:28:00,86.0,79.5,29.96,ESE,119,12.7,12.7,81,0.00,CLR,SKC,0.00,888.0,WeatherDisplay:10.37,2013-08-03 19:28:00,
2013-08-03 14:33:00,86.1,79.6,29.96,East,82,10.4,10.4,81,0.00,CLR,SKC,0.00,882.0,WeatherDisplay:10.37,2013-08-03 19:33:00,
2013-08-03 14:38:00,85.8,79.3,29.96,SE,125,15.0,15.0,81,0.00,CLR,SKC,0.00,877.0,WeatherDisplay:10.37,2013-08-03 19:38:00,
2013-08-03 14:43:00,85.9,79.4,29.96,East,96,15.0,15.0,81,0.00,CLR,SKC,0.00,874.0,WeatherDisplay:10.37,2013-08-03 19:43:00,
2013-08-03 14:48:00,86.1,79.6,29.96,ESE,123,11.5,11.5,81,0.00,CLR,SKC,0.00,867.0,WeatherDisplay:10.37,2013-08-03 19:48:00,
2013-08-03 14:53:00,86.1,79.6,29.96,East,91,12.7,12.7,81,0.00,CLR,SKC,0.00,861.0,WeatherDisplay:10.37,2013-08-03 19:53:00,
2013-08-03 14:58:00,86.1,79.6,29.95,East,87,13.8,13.8,81,0.00,CLR,SKC,0.00,856.0,WeatherDisplay:10.37,2013-08-03 19:58:00,
2013-08-03 15:03:00,86.4,79.9,29.95,ESE,115,13.8,13.8,81,0.00,CLR,SKC,0.00,849.0,WeatherDisplay:10.37,2013-08-03 20:03:00,
2013-08-03 15:08:00,86.3,79.8,29.95,SE,144,11.5,11.5,81,0.00,CLR,SKC,0.00,840.0,WeatherDisplay:10.37,2013-08-03 20:08:00,
2013-08-03 15:13:00,86.4,79.9,29.95,SE,138,11.5,11.5,81,0.00,CLR,SKC,0.00,837.0,WeatherDisplay:10.37,2013-08-03 20:13:00,
2013-08-03 15:18:00,86.4,79.9,29.95,ESE,107,10.4,10.4,81,0.00,CLR,SKC,0.00,821.0,WeatherDisplay:10.37,2013-08-03 20:18:00,
2013-08-03 15:23:00,85.9,79.4,29.95,ESE,113,12.7,12.7,81,0.00,CLR,SKC,0.00,807.0,WeatherDisplay:10.37,2013-08-03 20:23:00,
2013-08-03 15:28:00,85.9,79.8,29.94,East,98,12.7,12.7,82,0.00,CLR,SKC,0.00,796.0,WeatherDisplay:10.37,2013-08-03 20:28:00,
2013-08-03 15:33:00,86.2,80.1,29.94,ESE,121,11.5,11.5,82,0.00,CLR,SKC,0.00,788.0,WeatherDisplay:10.37,2013-08-03 20:33:00,
2013-08-03 15:38:00,86.1,79.6,29.94,ESE,120,11.5,11.5,81,0.00,CLR,SKC,0.00,780.0,WeatherDisplay:10.37,2013-08-03 20:38:00,
2013-08-03 15:43:00,86.0,79.5,29.94,SE,130,10.4,10.4,81,0.00,CLR,SKC,0.00,768.0,WeatherDisplay:10.37,2013-08-03 20:43:00,
2013-08-03 15:48:00,86.1,79.6,29.94,SE,139,15.0,15.0,81,0.00,CLR,SKC,0.00,759.0,WeatherDisplay:10.37,2013-08-03 20:48:00,
2013-08-03 15:53:00,86.2,79.7,29.94,SE,125,12.7,12.7,81,0.00,CLR,SKC,0.00,742.0,WeatherDisplay:10.37,2013-08-03 20:53:00,
2013-08-03 15:58:00,86.2,79.3,29.94,SSE,157,15.0,15.0,80,0.00,CLR,SKC,0.00,728.0,WeatherDisplay:10.37,2013-08-03 20:58:00,
2013-08-03 16:03:00,85.9,79.4,29.94,SE,129,16.1,16.1,81,0.00,CLR,SKC,0.00,717.0,WeatherDisplay:10.37,2013-08-03 21:03:00,
2013-08-03 16:08:00,86.0,79.5,29.94,East,96,11.5,11.5,81,0.00,CLR,SKC,0.00,701.0,WeatherDisplay:10.37,2013-08-03 21:08:00,
2013-08-03 16:13:00,86.0,79.9,29.94,ESE,117,11.5,11.5,82,0.00,CLR,SKC,0.00,696.0,WeatherDisplay:10.37,2013-08-03 21:13:00,
2013-08-03 16:18:00,85.8,79.7,29.94,SE,126,13.8,13.8,82,0.00,CLR,SKC,0.00,684.0,WeatherDisplay:10.37,2013-08-03 21:18:00,
2013-08-03 16:23:00,85.7,79.6,29.94,ESE,115,15.0,15.0,82,0.00,CLR,SKC,0.00,664.0,WeatherDisplay:10.37,2013-08-03 21:23:00,
2013-08-03 16:28:00,85.5,79.4,29.93,ESE,108,16.1,16.1,82,0.00,CLR,SKC,0.00,659.0,WeatherDisplay:10.37,2013-08-03 21:28:00,
2013-08-03 16:33:00,85.8,79.7,29.93,SE,138,12.7,12.7,82,0.00,CLR,SKC,0.00,649.0,WeatherDisplay:10.37,2013-08-03 21:33:00,
2013-08-03 16:38:00,85.9,79.8,29.93,ESE,107,12.7,12.7,82,0.00,CLR,SKC,0.00,633.0,WeatherDisplay:10.37,2013-08-03 21:38:00,
2013-08-03 16:43:00,86.0,79.9,29.93,SE,140,13.8,13.8,82,0.00,CLR,SKC,0.00,608.0,WeatherDisplay:10.37,2013-08-03 21:43:00,
2013-08-03 16:48:00,85.7,79.6,29.93,ESE,118,11.5,11.5,82,0.00,CLR,SKC,0.00,605.0,WeatherDisplay:10.37,2013-08-03 21:48:00,
2013-08-03 16:53:00,85.9,79.8,29.93,ESE,113,15.0,15.0,82,0.00,CLR,SKC,0.00,591.0,WeatherDisplay:10.37,2013-08-03 21:53:00,
2013-08-03 16:58:00,85.8,79.7,29.93,SE,129,15.0,15.0,82,0.00,CLR,SKC,0.00,577.0,WeatherDisplay:10.37,2013-08-03 21:58:00,
2013-08-03 17:03:00,85.9,79.8,29.93,SE,134,12.7,12.7,82,0.00,CLR,SKC,0.00,561.0,WeatherDisplay:10.37,2013-08-03 22:03:00,
2013-08-03 17:08:00,86.0,79.9,29.93,SE,124,15.0,15.0,82,0.00,CLR,SKC,0.00,545.0,WeatherDisplay:10.37,2013-08-03 22:08:00,
2013-08-03 17:13:00,85.9,79.8,29.93,SE,132,15.0,15.0,82,0.00,CLR,SKC,0.00,529.0,WeatherDisplay:10.37,2013-08-03 22:13:00,
2013-08-03 17:18:00,85.9,79.8,29.93,East,97,13.0,13.0,82,0.00,CLR,SKC,0.00,513.0,WeatherDisplay:10.37,2013-08-03 22:18:00,
2013-08-03 17:23:00,85.8,80.0,29.93,ESE,105,13.8,13.8,83,0.00,CLR,SKC,0.00,513.0,WeatherDisplay:10.37,2013-08-03 22:23:00,
2013-08-03 17:28:00,85.6,79.8,29.93,SE,126,12.7,12.7,83,0.00,CLR,SKC,0.00,482.0,WeatherDisplay:10.37,2013-08-03 22:28:00,
2013-08-03 17:33:00,85.4,79.6,29.93,ESE,119,13.8,13.8,83,0.00,CLR,SKC,0.00,469.0,WeatherDisplay:10.37,2013-08-03 22:33:00,
2013-08-03 17:38:00,85.4,79.6,29.93,ENE,74,15.0,15.0,83,0.00,CLR,SKC,0.00,452.0,WeatherDisplay:10.37,2013-08-03 22:38:00,
2013-08-03 17:43:00,85.3,79.9,29.93,East,92,14.0,14.0,84,0.00,CLR,SKC,0.00,436.0,WeatherDisplay:10.37,2013-08-03 22:43:00,
2013-08-03 17:48:00,85.4,79.6,29.93,ESE,119,13.8,13.8,83,0.00,CLR,SKC,0.00,420.0,WeatherDisplay:10.37,2013-08-03 22:48:00,
2013-08-03 17:53:00,85.3,79.5,29.93,ESE,107,15.0,15.0,83,0.00,CLR,SKC,0.00,403.0,WeatherDisplay:10.37,2013-08-03 22:53:00,
2013-08-03 17:58:00,85.2,79.8,29.93,ESE,112,12.7,12.7,84,0.00,CLR,SKC,0.00,387.0,WeatherDisplay:10.37,2013-08-03 22:58:00,
2013-08-03 18:03:00,85.2,79.8,29.93,SE,126,11.5,11.5,84,0.00,CLR,SKC,0.00,373.0,WeatherDisplay:10.37,2013-08-03 23:03:00,
2013-08-03 18:08:00,85.4,80.0,29.93,ESE,122,12.7,12.7,84,0.00,CLR,SKC,0.00,364.0,WeatherDisplay:10.37,2013-08-03 23:08:00,
2013-08-03 18:13:00,85.2,79.8,29.93,ESE,122,15.0,15.0,84,0.00,CLR,SKC,0.00,350.0,WeatherDisplay:10.37,2013-08-03 23:13:00,
2013-08-03 18:18:00,85.1,79.7,29.93,ESE,105,16.1,16.1,84,0.00,CLR,SKC,0.00,308.0,WeatherDisplay:10.37,2013-08-03 23:18:00,
2013-08-03 18:23:00,85.2,79.8,29.93,ESE,117,11.5,11.5,84,0.00,CLR,SKC,0.00,246.0,WeatherDisplay:10.37,2013-08-03 23:23:00,
2013-08-03 18:28:00,85.0,79.6,29.92,SE,132,15.0,15.0,84,0.00,CLR,SKC,0.00,223.0,WeatherDisplay:10.37,2013-08-03 23:28:00,
2013-08-03 18:33:00,84.8,79.4,29.92,ESE,111,12.7,12.7,84,0.00,CLR,SKC,0.00,244.0,WeatherDisplay:10.37,2013-08-03 23:33:00,
2013-08-03 18:38:00,84.7,79.7,29.92,ENE,76,11.5,11.5,85,0.00,CLR,SKC,0.00,246.0,WeatherDisplay:10.37,2013-08-03 23:38:00,
2013-08-03 18:43:00,84.9,79.9,29.92,SE,128,14.0,14.0,85,0.00,CLR,SKC,0.00,241.0,WeatherDisplay:10.37,2013-08-03 23:43:00,
2013-08-03 18:48:00,84.7,79.7,29.92,East,101,13.8,13.8,85,0.00,CLR,SKC,0.00,230.0,WeatherDisplay:10.37,2013-08-03 23:48:00,
2013-08-03 18:53:00,84.7,79.7,29.92,SE,128,16.1,16.1,85,0.00,CLR,SKC,0.00,207.0,WeatherDisplay:10.37,2013-08-03 23:53:00,
2013-08-03 18:58:00,84.6,79.6,29.91,SE,134,11.5,11.5,85,0.00,CLR,SKC,0.00,178.0,WeatherDisplay:10.37,2013-08-03 23:58:00,
2013-08-03 19:03:00,84.6,79.6,29.91,SE,140,13.8,13.8,85,0.00,CLR,SKC,0.00,165.0,WeatherDisplay:10.37,2013-08-04 00:03:00,
2013-08-03 19:08:00,84.5,79.5,29.91,ESE,117,17.3,17.3,85,0.00,CLR,SKC,0.00,151.0,WeatherDisplay:10.37,2013-08-04 00:08:00,
2013-08-03 19:13:00,84.5,79.5,29.91,East,92,12.7,12.7,85,0.00,CLR,SKC,0.00,151.0,WeatherDisplay:10.37,2013-08-04 00:13:00,
2013-08-03 19:18:00,84.5,79.5,29.91,East,101,12.7,12.7,85,0.00,CLR,SKC,0.00,132.0,WeatherDisplay:10.37,2013-08-04 00:18:00,
2013-08-03 19:23:00,84.5,79.8,29.91,SSE,153,11.5,11.5,86,0.00,CLR,SKC,0.00,107.0,WeatherDisplay:10.37,2013-08-04 00:23:00,
2013-08-03 19:28:00,84.3,79.7,29.92,ESE,103,11.5,11.5,86,0.00,CLR,SKC,0.00,88.0,WeatherDisplay:10.37,2013-08-04 00:28:00,
2013-08-03 19:33:00,84.1,79.5,29.92,SE,136,13.8,13.8,86,0.00,CLR,SKC,0.00,74.0,WeatherDisplay:10.37,2013-08-04 00:33:00,
2013-08-03 19:38:00,84.0,79.7,29.92,SE,126,11.5,11.5,87,0.00,CLR,SKC,0.00,65.0,WeatherDisplay:10.37,2013-08-04 00:38:00,
2013-08-03 19:43:00,84.0,79.7,29.92,SE,136,12.7,12.7,87,0.00,CLR,SKC,0.00,62.0,WeatherDisplay:10.37,2013-08-04 00:43:00,
2013-08-03 19:48:00,83.8,79.5,29.92,ESE,112,14.0,14.0,87,0.00,CLR,SKC,0.00,51.0,WeatherDisplay:10.37,2013-08-04 00:48:00,
2013-08-03 19:53:00,83.8,79.5,29.92,SE,141,11.5,11.5,87,0.00,CLR,SKC,0.00,35.0,WeatherDisplay:10.37,2013-08-04 00:53:00,
2013-08-03 19:58:00,83.8,79.5,29.92,SE,124,10.4,10.4,87,0.00,CLR,SKC,0.00,26.0,WeatherDisplay:10.37,2013-08-04 00:58:00,
2013-08-03 20:03:00,83.7,79.4,29.92,SE,142,11.5,11.5,87,0.00,CLR,SKC,0.00,18.0,WeatherDisplay:10.37,2013-08-04 01:03:00,
2013-08-03 20:08:00,83.6,79.3,29.92,SE,132,10.4,10.4,87,0.00,CLR,SKC,0.00,12.0,WeatherDisplay:10.37,2013-08-04 01:08:00,
2013-08-03 20:13:00,83.5,79.2,29.93,SE,126,11.5,11.5,87,0.00,CLR,SKC,0.00,7.0,WeatherDisplay:10.37,2013-08-04 01:13:00,
2013-08-03 20:18:00,83.3,79.0,29.93,East,81,12.7,12.7,87,0.00,CLR,SKC,0.00,5.0,WeatherDisplay:10.37,2013-08-04 01:18:00,
2013-08-03 20:23:00,83.2,78.9,29.93,ESE,119,12.0,12.0,87,0.00,CLR,SKC,0.00,0.0,WeatherDisplay:10.37,2013-08-04 01:23:00,
2013-08-03 20:28:00,83.1,79.2,29.93,East,89,11.5,11.5,88,0.00,CLR,SKC,0.00,0.0,WeatherDisplay:10.37,2013-08-04 01:28:00,
2013-08-03 20:33:00,83.0,79.1,29.93,SE,127,12.7,12.7,88,0.00,CLR,SKC,0.00,0.0,WeatherDisplay:10.37,2013-08-04 01:33:00,
2013-08-03 20:38:00,82.9,79.0,29.93,SE,126,11.5,11.5,88,0.00,CLR,SKC,0.00,0.0,WeatherDisplay:10.37,2013-08-04 01:38:00,
2013-08-03 20:43:00,82.9,79.3,29.93,East,92,11.5,11.5,89,0.00,CLR,SKC,0.00,0.0,WeatherDisplay:10.37,2013-08-04 01:43:00,
2013-08-03 20:48:00,82.9,79.3,29.93,ESE,114,10.0,10.0,89,0.00,CLR,SKC,0.00,0.0,WeatherDisplay:10.37,2013-08-04 01:48:00,
2013-08-03 20:53:00,82.9,79.3,29.93,ESE,117,12.0,12.0,89,0.00,CLR,SKC,0.00,0.0,WeatherDisplay:10.37,2013-08-04 01:53:00,
2013-08-03 20:58:00,82.9,79.3,29.93,East,101,15.0,15.0,89,0.00,CLR,SKC,0.00,0.0,WeatherDisplay:10.37,2013-08-04 01:58:00,
2013-08-03 21:03:00,82.8,79.2,29.93,East,93,11.5,11.5,89,0.00,CLR,SKC,0.00,0.0,WeatherDisplay:10.37,2013-08-04 02:03:00,
2013-08-03 21:08:00,82.8,79.2,29.93,SE,134,13.8,13.8,89,0.00,CLR,SKC,0.00,0.0,WeatherDisplay:10.37,2013-08-04 02:08:00,
2013-08-03 21:13:00,82.7,79.1,29.93,South,170,15.0,15.0,89,0.00,CLR,SKC,0.00,0.0,WeatherDisplay:10.37,2013-08-04 02:13:00,
2013-08-03 21:18:00,82.7,79.1,29.93,SE,131,13.8,13.8,89,0.00,CLR,SKC,0.00,0.0,WeatherDisplay:10.37,2013-08-04 02:18:00,
2013-08-03 21:23:00,82.7,79.1,29.93,SE,132,12.7,12.7,89,0.00,CLR,SKC,0.00,0.0,WeatherDisplay:10.37,2013-08-04 02:23:00,
2013-08-03 21:28:00,82.7,79.5,29.94,East,98,12.7,12.7,90,0.00,CLR,SKC,0.00,0.0,WeatherDisplay:10.37,2013-08-04 02:28:00,
2013-08-03 21:33:00,82.7,79.5,29.94,ESE,121,16.1,16.1,90,0.00,CLR,SKC,0.00,0.0,WeatherDisplay:10.37,2013-08-04 02:33:00,
2013-08-03 21:38:00,82.7,79.5,29.94,East,98,11.5,11.5,90,0.00,CLR,SKC,0.00,0.0,WeatherDisplay:10.37,2013-08-04 02:38:00,
2013-08-03 21:43:00,82.7,79.5,29.94,SE,128,12.7,12.7,90,0.00,CLR,SKC,0.00,0.0,WeatherDisplay:10.37,2013-08-04 02:43:00,
2013-08-03 21:48:00,82.7,79.1,29.94,ESE,109,11.5,11.5,89,0.00,CLR,SKC,0.00,0.0,WeatherDisplay:10.37,2013-08-04 02:48:00,
2013-08-03 21:53:00,82.7,79.5,29.94,SE,126,13.0,13.0,90,0.00,CLR,SKC,0.00,0.0,WeatherDisplay:10.37,2013-08-04 02:53:00,
2013-08-03 21:58:00,82.7,79.5,29.95,SSE,163,11.5,11.5,90,0.00,CLR,SKC,0.00,0.0,WeatherDisplay:10.37,2013-08-04 02:58:00,
2013-08-03 22:03:00,82.7,79.5,29.95,ESE,106,10.4,10.4,90,0.00,CLR,SKC,0.00,0.0,WeatherDisplay:10.37,2013-08-04 03:03:00,
2013-08-03 22:08:00,82.7,79.5,29.95,ESE,119,12.7,12.7,90,0.00,CLR,SKC,0.00,0.0,WeatherDisplay:10.37,2013-08-04 03:08:00,
2013-08-03 22:13:00,82.6,79.0,29.96,SE,133,13.0,13.0,89,0.00,CLR,SKC,0.00,0.0,WeatherDisplay:10.37,2013-08-04 03:13:00,
2013-08-03 22:18:00,82.6,79.4,29.96,ESE,123,11.0,11.0,90,0.00,CLR,SKC,0.00,0.0,WeatherDisplay:10.37,2013-08-04 03:18:00,
2013-08-03 22:23:00,82.7,79.5,29.96,ESE,121,11.5,11.5,90,0.00,CLR,SKC,0.00,0.0,WeatherDisplay:10.37,2013-08-04 03:23:00,
2013-08-03 22:28:00,82.6,79.4,29.97,East,98,14.0,14.0,90,0.00,CLR,SKC,0.00,0.0,WeatherDisplay:10.37,2013-08-04 03:28:00,
2013-08-03 22:33:00,82.5,79.3,29.97,East,84,11.5,11.5,90,0.00,CLR,SKC,0.00,0.0,WeatherDisplay:10.37,2013-08-04 03:33:00,
2013-08-03 22:38:00,82.4,79.2,29.97,SE,144,11.5,11.5,90,0.00,CLR,SKC,0.00,0.0,WeatherDisplay:10.37,2013-08-04 03:38:00,
2013-08-03 22:43:00,82.4,78.8,29.98,ESE,115,10.4,10.4,89,0.00,CLR,SKC,0.00,0.0,WeatherDisplay:10.37,2013-08-04 03:43:00,
2013-08-03 22:48:00,82.3,78.7,29.98,SSE,158,10.4,10.4,89,0.00,CLR,SKC,0.00,0.0,WeatherDisplay:10.37,2013-08-04 03:48:00,
2013-08-03 22:53:00,82.3,78.7,29.98,SE,133,10.4,10.4,89,0.00,CLR,SKC,0.00,0.0,WeatherDisplay:10.37,2013-08-04 03:53:00,
2013-08-03 22:58:00,82.4,78.8,29.98,SE,138,9.2,9.2,89,0.00,CLR,SKC,0.00,0.0,WeatherDisplay:10.37,2013-08-04 03:58:00,
2013-08-03 23:01:00,82.4,78.8,29.98,SE,127,9.2,9.2,89,0.00,CLR,SKC,0.00,0.0,WeatherDisplay:10.37,2013-08-04 04:01:00,
2013-08-03 23:02:00,82.4,78.8,29.98,SSE,155,11.5,11.5,89,0.00,CLR,SKC,0.00,0.0,WeatherDisplay:10.37,2013-08-04 04:02:00,
2013-08-03 23:07:00,82.4,78.8,29.98,SSE,147,12.7,12.7,89,0.00,CLR,SKC,0.00,0.0,WeatherDisplay:10.37,2013-08-04 04:07:00,
2013-08-03 23:12:00,82.4,78.8,29.99,SE,132,6.9,6.9,89,0.00,CLR,SKC,0.00,0.0,WeatherDisplay:10.37,2013-08-04 04:12:00,
2013-08-03 23:17:00,82.4,78.8,29.99,ESE,111,9.2,9.2,89,0.00,CLR,SKC,0.00,0.0,WeatherDisplay:10.37,2013-08-04 04:17:00,
2013-08-03 23:22:00,82.4,78.8,29.99,ESE,121,10.4,10.4,89,0.00,CLR,SKC,0.00,0.0,WeatherDisplay:10.37,2013-08-04 04:22:00,
2013-08-03 23:27:00,82.4,78.8,29.98,SSE,153,6.9,6.9,89,0.00,CLR,SKC,0.00,0.0,WeatherDisplay:10.37,2013-08-04 04:27:00,
2013-08-03 23:32:00,82.4,78.8,29.98,SE,138,6.9,6.9,89,0.00,CLR,SKC,0.00,0.0,WeatherDisplay:10.37,2013-08-04 04:32:00,
2013-08-03 23:37:00,82.4,78.8,29.98,ESE,118,9.2,9.2,89,0.00,CLR,SKC,0.00,0.0,WeatherDisplay:10.37,2013-08-04 04:37:00,
2013-08-03 23:42:00,82.4,78.8,29.99,ESE,111,5.8,5.8,89,0.00,CLR,SKC,0.00,0.0,WeatherDisplay:10.37,2013-08-04 04:42:00,
2013-08-03 23:47:00,82.3,78.7,29.99,SE,145,8.1,8.1,89,0.00,CLR,SKC,0.00,0.0,WeatherDisplay:10.37,2013-08-04 04:47:00,
2013-08-03 23:52:00,82.3,79.1,29.99,SE,143,10.4,10.4,90,0.00,CLR,SKC,0.00,0.0,WeatherDisplay:10.37,2013-08-04 04:52:00,
2013-08-03 23:57:00,82.3,79.1,29.98,ESE,112,6.9,6.9,90,0.00,CLR,SKC,0.00,0.0,WeatherDisplay:10.37,2013-08-04 04:57:00,